createdAt,value
2018-09-07T00:01:00.991Z,610
2018-09-07T00:02:07.385Z,611
2018-09-07T00:03:14.328Z,604
2018-09-07T00:04:20.996Z,608
2018-09-07T00:05:27.936Z,602
2018-09-07T00:06:35.158Z,604
2018-09-07T00:07:42.375Z,607
2018-09-07T00:08:49.318Z,608
2018-09-07T00:09:56.554Z,615
2018-09-07T00:11:03.769Z,613
2018-09-07T00:12:10.984Z,620
2018-09-07T00:13:17.924Z,623
2018-09-07T00:14:24.924Z,628
2018-09-07T00:15:32.138Z,632
2018-09-07T00:16:39.359Z,638
2018-09-07T00:17:46.573Z,643
2018-09-07T00:18:53.785Z,648
2018-09-07T00:20:00.729Z,651
2018-09-07T00:21:07.938Z,654
2018-09-07T00:22:14.602Z,657
2018-09-07T00:23:21.815Z,661
2018-09-07T00:24:29.029Z,659
2018-09-07T00:25:36.242Z,650
2018-09-07T00:26:43.190Z,662
2018-09-07T00:27:50.407Z,658
2018-09-07T00:28:57.621Z,649
2018-09-07T00:30:04.827Z,657
2018-09-07T00:31:12.053Z,665
2018-09-07T00:32:18.717Z,654
2018-09-07T00:33:25.658Z,650
2018-09-07T00:34:32.876Z,651
2018-09-07T00:35:39.545Z,656
2018-09-07T00:36:46.489Z,660
2018-09-07T00:37:53.705Z,656
2018-09-07T00:39:00.919Z,655
2018-09-07T00:40:07.853Z,654
2018-09-07T00:41:14.791Z,669
2018-09-07T00:42:22.008Z,671
2018-09-07T00:43:29.226Z,665
2018-09-07T00:44:36.434Z,668
2018-09-07T00:45:43.388Z,659
2018-09-07T00:46:50.602Z,647
2018-09-07T00:47:57.531Z,643
2018-09-07T00:49:04.743Z,634
2018-09-07T00:50:11.960Z,639
2018-09-07T00:51:19.169Z,629
2018-09-07T00:52:26.385Z,625
2018-09-07T00:53:33.602Z,635
2018-09-07T00:54:40.813Z,635
2018-09-07T00:55:48.029Z,637
2018-09-07T00:56:55.247Z,638
2018-09-07T00:58:02.460Z,640
2018-09-07T00:59:09.675Z,629
2018-09-07T01:00:16.884Z,638
2018-09-07T01:01:24.101Z,653
2018-09-07T01:02:31.310Z,629
2018-09-07T01:03:38.523Z,651
2018-09-07T01:04:45.740Z,623
2018-09-07T01:05:52.956Z,632
2018-09-07T01:07:00.165Z,626
2018-09-07T01:08:07.105Z,617
2018-09-07T01:09:14.330Z,604
2018-09-07T01:10:21.269Z,608
2018-09-07T01:11:28.488Z,608
2018-09-07T01:12:35.730Z,614
2018-09-07T01:13:42.938Z,619
2018-09-07T01:14:50.149Z,625
2018-09-07T01:15:57.138Z,631
2018-09-07T01:17:04.354Z,637
2018-09-07T01:18:11.567Z,643
2018-09-07T01:19:18.783Z,650
2018-09-07T01:20:25.999Z,657
2018-09-07T01:21:33.218Z,654
2018-09-07T01:22:40.437Z,652
2018-09-07T01:23:47.686Z,660
2018-09-07T01:24:54.897Z,664
2018-09-07T01:26:02.126Z,662
2018-09-07T01:27:09.343Z,670
2018-09-07T01:28:16.287Z,673
2018-09-07T01:29:23.510Z,677
2018-09-07T01:30:30.723Z,680
2018-09-07T01:31:37.946Z,691
2018-09-07T01:32:45.166Z,696
2018-09-07T01:33:52.110Z,698
2018-09-07T01:34:59.045Z,702
2018-09-07T01:36:06.267Z,705
2018-09-07T01:37:13.489Z,706
2018-09-07T01:38:20.702Z,709
2018-09-07T01:39:27.920Z,712
2018-09-07T01:40:34.854Z,714
2018-09-07T01:41:42.060Z,714
2018-09-07T01:42:49.000Z,716
2018-09-07T01:43:56.217Z,719
2018-09-07T01:45:03.431Z,720
2018-09-07T01:46:10.643Z,722
2018-09-07T01:47:17.855Z,724
2018-09-07T01:48:25.074Z,723
2018-09-07T01:49:32.297Z,725
2018-09-07T01:50:39.525Z,725
2018-09-07T01:51:46.734Z,725
2018-09-07T01:52:53.955Z,728
2018-09-07T01:54:01.164Z,729
2018-09-07T01:55:08.377Z,731
2018-09-07T01:56:15.592Z,731
2018-09-07T01:57:22.804Z,733
2018-09-07T01:58:30.020Z,733
2018-09-07T01:59:37.236Z,734
2018-09-07T02:00:44.450Z,735
2018-09-07T02:01:51.666Z,736
2018-09-07T02:02:58.611Z,736
2018-09-07T02:04:05.825Z,735
2018-09-07T02:05:13.037Z,736
2018-09-07T02:06:20.273Z,738
2018-09-07T02:07:27.489Z,736
2018-09-07T02:08:34.708Z,739
2018-09-07T02:09:41.928Z,738
2018-09-07T02:10:49.147Z,738
2018-09-07T02:11:56.362Z,737
2018-09-07T02:13:03.297Z,737
2018-09-07T02:14:10.507Z,737
2018-09-07T02:15:17.450Z,739
2018-09-07T02:16:24.383Z,740
2018-09-07T02:17:31.601Z,740
2018-09-07T02:18:38.822Z,739
2018-09-07T02:19:46.050Z,741
2018-09-07T02:20:53.256Z,743
2018-09-07T02:22:00.203Z,742
2018-09-07T02:23:07.417Z,741
2018-09-07T02:24:14.632Z,741
2018-09-07T02:25:21.572Z,743
2018-09-07T02:26:28.509Z,743
2018-09-07T02:27:35.723Z,743
2018-09-07T02:28:42.940Z,743
2018-09-07T02:29:50.156Z,744
2018-09-07T02:30:57.364Z,742
2018-09-07T02:32:04.579Z,744
2018-09-07T02:33:11.521Z,746
2018-09-07T02:34:18.733Z,745
2018-09-07T02:35:25.950Z,745
2018-09-07T02:36:32.885Z,745
2018-09-07T02:37:40.100Z,744
2018-09-07T02:38:47.319Z,747
2018-09-07T02:39:54.529Z,746
2018-09-07T02:41:01.744Z,745
2018-09-07T02:42:08.956Z,744
2018-09-07T02:43:16.163Z,746
2018-09-07T02:44:23.388Z,745
2018-09-07T02:45:30.594Z,746
2018-09-07T02:46:37.548Z,746
2018-09-07T02:47:44.759Z,746
2018-09-07T02:48:51.706Z,748
2018-09-07T02:49:58.921Z,748
2018-09-07T02:51:05.857Z,747
2018-09-07T02:52:13.076Z,747
2018-09-07T02:53:20.295Z,747
2018-09-07T02:54:27.238Z,747
2018-09-07T02:55:34.454Z,747
2018-09-07T02:56:41.671Z,747
2018-09-07T02:57:48.884Z,746
2018-09-07T02:58:55.793Z,748
2018-09-07T03:00:03.010Z,748
2018-09-07T03:01:10.437Z,748
2018-09-07T03:02:17.655Z,749
2018-09-07T03:03:24.871Z,747
2018-09-07T03:04:32.078Z,748
2018-09-07T03:05:39.293Z,749
2018-09-07T03:06:46.501Z,749
2018-09-07T03:07:53.713Z,747
2018-09-07T03:09:00.927Z,749
2018-09-07T03:10:08.148Z,749
2018-09-07T03:11:15.363Z,749
2018-09-07T03:12:22.581Z,749
2018-09-07T03:13:29.788Z,748
2018-09-07T03:14:37.006Z,751
2018-09-07T03:15:44.223Z,749
2018-09-07T03:16:51.438Z,749
2018-09-07T03:17:58.652Z,749
2018-09-07T03:19:05.864Z,749
2018-09-07T03:20:12.817Z,749
2018-09-07T03:21:20.033Z,749
2018-09-07T03:22:27.247Z,749
2018-09-07T03:23:34.456Z,750
2018-09-07T03:24:41.404Z,750
2018-09-07T03:25:48.630Z,749
2018-09-07T03:26:55.839Z,749
2018-09-07T03:28:03.047Z,750
2018-09-07T03:29:10.280Z,749
2018-09-07T03:30:17.495Z,750
2018-09-07T03:31:24.714Z,748
2018-09-07T03:32:31.941Z,748
2018-09-07T03:33:38.878Z,748
2018-09-07T03:34:46.091Z,749
2018-09-07T03:35:53.307Z,748
2018-09-07T03:37:00.520Z,749
2018-09-07T03:38:07.462Z,749
2018-09-07T03:39:14.675Z,749
2018-09-07T03:40:21.893Z,748
2018-09-07T03:41:29.113Z,751
2018-09-07T03:42:36.711Z,750
2018-09-07T03:43:44.065Z,752
2018-09-07T03:44:51.276Z,753
2018-09-07T03:45:58.495Z,758
2018-09-07T03:47:05.702Z,758
2018-09-07T03:48:12.914Z,760
2018-09-07T03:49:20.129Z,757
2018-09-07T03:50:27.346Z,759
2018-09-07T03:51:34.564Z,760
2018-09-07T03:52:41.778Z,763
2018-09-07T03:53:48.999Z,764
2018-09-07T03:54:56.206Z,761
2018-09-07T03:56:03.150Z,760
2018-09-07T03:57:10.355Z,755
2018-09-07T03:58:17.565Z,773
2018-09-07T03:59:24.770Z,773
2018-09-07T04:00:31.985Z,778
2018-09-07T04:01:39.202Z,773
2018-09-07T04:02:46.416Z,778
2018-09-07T04:03:53.673Z,781
2018-09-07T04:05:00.888Z,786
2018-09-07T04:06:08.107Z,783
2018-09-07T04:07:15.319Z,788
2018-09-07T04:08:22.537Z,784
2018-09-07T04:09:29.753Z,782
2018-09-07T04:10:36.965Z,784
2018-09-07T04:11:44.185Z,783
2018-09-07T04:12:51.398Z,781
2018-09-07T04:13:58.613Z,785
2018-09-07T04:15:05.561Z,781
2018-09-07T04:16:12.779Z,781
2018-09-07T04:17:19.998Z,781
2018-09-07T04:18:27.200Z,781
2018-09-07T04:19:34.412Z,781
2018-09-07T04:20:41.637Z,781
2018-09-07T04:21:48.851Z,781
2018-09-07T04:22:56.066Z,781
2018-09-07T04:24:03.280Z,780
2018-09-07T04:25:10.493Z,781
2018-09-07T04:26:17.432Z,782
2018-09-07T04:27:24.652Z,781
2018-09-07T04:28:31.864Z,781
2018-09-07T04:29:39.074Z,780
2018-09-07T04:30:46.287Z,781
2018-09-07T04:31:53.502Z,780
2018-09-07T04:33:00.709Z,780
2018-09-07T04:34:07.919Z,779
2018-09-07T04:35:15.140Z,777
2018-09-07T04:36:22.351Z,779
2018-09-07T04:37:29.562Z,779
2018-09-07T04:38:36.805Z,778
2018-09-07T04:39:44.015Z,793
2018-09-07T04:40:51.230Z,783
2018-09-07T04:41:58.450Z,783
2018-09-07T04:43:05.659Z,782
2018-09-07T04:44:12.885Z,782
2018-09-07T04:45:19.824Z,780
2018-09-07T04:46:27.038Z,781
2018-09-07T04:47:34.265Z,782
2018-09-07T04:48:41.480Z,781
2018-09-07T04:49:48.688Z,782
2018-09-07T04:50:55.630Z,780
2018-09-07T04:52:02.843Z,783
2018-09-07T04:53:10.058Z,782
2018-09-07T04:54:17.267Z,781
2018-09-07T04:55:24.489Z,782
2018-09-07T04:56:31.699Z,781
2018-09-07T04:57:39.108Z,783
2018-09-07T04:58:46.408Z,782
2018-09-07T04:59:53.616Z,781
2018-09-07T05:01:00.839Z,782
2018-09-07T05:02:08.053Z,781
2018-09-07T05:03:15.263Z,783
2018-09-07T05:04:22.218Z,782
2018-09-07T05:05:29.435Z,783
2018-09-07T05:06:36.648Z,781
2018-09-07T05:07:43.862Z,781
2018-09-07T05:08:51.074Z,783
2018-09-07T05:09:58.287Z,780
2018-09-07T05:11:05.513Z,782
2018-09-07T05:12:12.720Z,781
2018-09-07T05:13:19.933Z,780
2018-09-07T05:14:27.154Z,781
2018-09-07T05:15:34.355Z,782
2018-09-07T05:16:41.576Z,781
2018-09-07T05:17:48.518Z,783
2018-09-07T05:18:55.729Z,785
2018-09-07T05:20:02.935Z,787
2018-09-07T05:21:10.159Z,787
2018-09-07T05:22:17.377Z,789
2018-09-07T05:23:24.603Z,788
2018-09-07T05:24:31.813Z,787
2018-09-07T05:25:39.016Z,788
2018-09-07T05:26:46.228Z,789
2018-09-07T05:27:53.443Z,788
2018-09-07T05:29:00.658Z,787
2018-09-07T05:30:07.880Z,788
2018-09-07T05:31:15.104Z,789
2018-09-07T05:32:22.317Z,787
2018-09-07T05:33:29.526Z,787
2018-09-07T05:34:36.739Z,788
2018-09-07T05:35:43.955Z,787
2018-09-07T05:36:51.167Z,787
2018-09-07T05:37:58.377Z,789
2018-09-07T05:39:05.593Z,787
2018-09-07T05:40:12.532Z,785
2018-09-07T05:41:19.745Z,787
2018-09-07T05:42:26.957Z,785
2018-09-07T05:43:34.171Z,787
2018-09-07T05:44:41.407Z,787
2018-09-07T05:45:48.635Z,787
2018-09-07T05:46:55.873Z,788
2018-09-07T05:48:03.087Z,787
2018-09-07T05:49:10.307Z,788
2018-09-07T05:50:17.519Z,788
2018-09-07T05:51:24.745Z,790
2018-09-07T05:52:31.947Z,788
2018-09-07T05:53:39.162Z,788
2018-09-07T05:54:46.371Z,790
2018-09-07T05:55:53.590Z,791
2018-09-07T05:57:00.811Z,790
2018-09-07T05:58:08.023Z,790
2018-09-07T05:59:15.237Z,790
2018-09-07T06:00:22.457Z,790
2018-09-07T06:01:29.677Z,791
2018-09-07T06:02:36.891Z,790
2018-09-07T06:03:44.099Z,790
2018-09-07T06:04:51.311Z,791
2018-09-07T06:05:58.524Z,793
2018-09-07T06:07:05.736Z,793
2018-09-07T06:08:12.953Z,793
2018-09-07T06:09:20.170Z,794
2018-09-07T06:10:27.109Z,791
2018-09-07T06:11:34.325Z,791
2018-09-07T06:12:41.540Z,787
2018-09-07T06:13:48.762Z,783
2018-09-07T06:14:55.984Z,780
2018-09-07T06:16:03.200Z,778
2018-09-07T06:17:10.411Z,778
2018-09-07T06:18:17.642Z,777
2018-09-07T06:19:24.854Z,777
2018-09-07T06:20:32.070Z,775
2018-09-07T06:21:39.286Z,774
2018-09-07T06:22:46.860Z,773
2018-09-07T06:23:54.247Z,775
2018-09-07T06:25:01.189Z,773
2018-09-07T06:26:08.407Z,772
2018-09-07T06:27:15.349Z,772
2018-09-07T06:28:22.296Z,773
2018-09-07T06:29:29.508Z,771
2018-09-07T06:30:36.725Z,771
2018-09-07T06:31:43.667Z,770
2018-09-07T06:32:51.400Z,770
2018-09-07T06:33:58.387Z,771
2018-09-07T06:35:05.623Z,769
2018-09-07T06:36:12.837Z,767
2018-09-07T06:37:20.053Z,768
2018-09-07T06:38:27.323Z,769
2018-09-07T06:39:34.882Z,769
2018-09-07T06:40:42.090Z,771
2018-09-07T06:41:49.310Z,771
2018-09-07T06:42:56.518Z,770
2018-09-07T06:44:03.522Z,769
2018-09-07T06:45:10.749Z,768
2018-09-07T06:46:17.967Z,768
2018-09-07T06:47:25.178Z,768
2018-09-07T06:48:32.388Z,770
2018-09-07T06:49:39.332Z,768
2018-09-07T06:50:46.544Z,768
2018-09-07T06:51:53.490Z,768
2018-09-07T06:53:00.919Z,768
2018-09-07T06:54:08.140Z,765
2018-09-07T06:55:15.359Z,767
2018-09-07T06:56:22.575Z,766
2018-09-07T06:57:29.790Z,766
2018-09-07T06:58:37.002Z,766
2018-09-07T06:59:43.946Z,765
2018-09-07T07:00:51.208Z,765
2018-09-07T07:01:58.422Z,765
2018-09-07T07:03:05.637Z,765
2018-09-07T07:04:12.850Z,763
2018-09-07T07:05:20.065Z,765
2018-09-07T07:06:27.283Z,764
2018-09-07T07:07:34.500Z,763
2018-09-07T07:08:41.997Z,763
2018-09-07T07:09:49.603Z,762
2018-09-07T07:10:56.810Z,763
2018-09-07T07:12:04.041Z,762
2018-09-07T07:13:11.264Z,761
2018-09-07T07:14:18.491Z,759
2018-09-07T07:15:25.710Z,760
2018-09-07T07:16:32.921Z,759
2018-09-07T07:17:40.133Z,761
2018-09-07T07:18:47.075Z,761
2018-09-07T07:19:54.291Z,760
2018-09-07T07:21:01.507Z,760
2018-09-07T07:22:08.720Z,763
2018-09-07T07:23:16.273Z,762
2018-09-07T07:24:23.738Z,763
2018-09-07T07:25:30.690Z,762
2018-09-07T07:26:37.932Z,762
2018-09-07T07:27:45.161Z,763
2018-09-07T07:28:52.380Z,761
2018-09-07T07:29:59.603Z,760
2018-09-07T07:31:06.819Z,761
2018-09-07T07:32:13.764Z,759
2018-09-07T07:33:20.983Z,762
2018-09-07T07:34:28.203Z,763
2018-09-07T07:35:35.422Z,763
2018-09-07T07:36:42.363Z,766
2018-09-07T07:37:49.576Z,764
2018-09-07T07:38:56.796Z,763
2018-09-07T07:40:04.005Z,764
2018-09-07T07:41:11.254Z,760
2018-09-07T07:42:18.471Z,759
2018-09-07T07:43:25.690Z,761
2018-09-07T07:44:32.901Z,761
2018-09-07T07:45:40.122Z,761
2018-09-07T07:46:47.350Z,760
2018-09-07T07:47:55.073Z,760
2018-09-07T07:49:02.500Z,759
2018-09-07T07:50:09.928Z,760
2018-09-07T07:51:17.141Z,759
2018-09-07T07:52:24.349Z,759
2018-09-07T07:53:31.564Z,761
2018-09-07T07:54:38.774Z,761
2018-09-07T07:55:45.996Z,763
2018-09-07T07:56:53.344Z,764
2018-09-07T07:58:00.707Z,764
2018-09-07T07:59:07.923Z,763
2018-09-07T08:00:15.140Z,762
2018-09-07T08:01:22.371Z,758
2018-09-07T08:02:29.581Z,758
2018-09-07T08:03:36.797Z,757
2018-09-07T08:04:44.018Z,757
2018-09-07T08:05:51.246Z,758
2018-09-07T08:06:58.442Z,762
2018-09-07T08:08:05.380Z,761
2018-09-07T08:09:12.319Z,760
2018-09-07T08:10:19.534Z,763
2018-09-07T08:11:26.479Z,762
2018-09-07T08:12:33.905Z,761
2018-09-07T08:13:41.289Z,762
2018-09-07T08:14:48.500Z,761
2018-09-07T08:15:55.779Z,761
2018-09-07T08:17:03.006Z,762
2018-09-07T08:18:10.224Z,762
2018-09-07T08:19:17.442Z,763
2018-09-07T08:20:24.764Z,761
2018-09-07T08:21:31.990Z,762
2018-09-07T08:22:39.229Z,763
2018-09-07T08:23:46.437Z,764
2018-09-07T08:24:53.650Z,760
2018-09-07T08:26:00.865Z,760
2018-09-07T08:27:07.806Z,760
2018-09-07T08:28:15.026Z,758
2018-09-07T08:29:22.244Z,758
2018-09-07T08:30:29.184Z,757
2018-09-07T08:31:36.402Z,759
2018-09-07T08:32:43.882Z,758
2018-09-07T08:33:51.292Z,757
2018-09-07T08:34:58.510Z,757
2018-09-07T08:36:05.733Z,755
2018-09-07T08:37:12.940Z,756
2018-09-07T08:38:20.153Z,756
2018-09-07T08:39:27.365Z,755
2018-09-07T08:40:34.601Z,757
2018-09-07T08:41:41.569Z,756
2018-09-07T08:42:48.791Z,759
2018-09-07T08:43:56.005Z,755
2018-09-07T08:45:03.231Z,756
2018-09-07T08:46:10.435Z,757
2018-09-07T08:47:17.656Z,756
2018-09-07T08:48:24.876Z,755
2018-09-07T08:49:31.814Z,754
2018-09-07T08:50:39.033Z,755
2018-09-07T08:51:46.257Z,753
2018-09-07T08:52:53.194Z,749
2018-09-07T08:54:00.413Z,748
2018-09-07T08:55:07.959Z,748
2018-09-07T08:56:15.073Z,747
2018-09-07T08:57:22.289Z,751
2018-09-07T08:58:29.509Z,755
2018-09-07T08:59:36.737Z,756
2018-09-07T09:00:43.949Z,754
2018-09-07T09:01:51.171Z,758
2018-09-07T09:02:58.384Z,758
2018-09-07T09:04:05.599Z,757
2018-09-07T09:05:12.547Z,757
2018-09-07T09:06:19.769Z,753
2018-09-07T09:07:26.983Z,753
2018-09-07T09:08:34.208Z,751
2018-09-07T09:09:41.432Z,752
2018-09-07T09:10:48.640Z,751
2018-09-07T09:11:55.866Z,749
2018-09-07T09:13:03.081Z,753
2018-09-07T09:14:10.295Z,751
2018-09-07T09:15:17.524Z,751
2018-09-07T09:16:24.736Z,750
2018-09-07T09:17:31.953Z,750
2018-09-07T09:18:38.897Z,749
2018-09-07T09:19:46.111Z,746
2018-09-07T09:20:53.323Z,748
2018-09-07T09:22:00.549Z,747
2018-09-07T09:23:07.484Z,748
2018-09-07T09:24:14.621Z,745
2018-09-07T09:25:22.039Z,749
2018-09-07T09:26:29.273Z,748
2018-09-07T09:27:36.493Z,748
2018-09-07T09:28:43.711Z,746
2018-09-07T09:29:50.659Z,746
2018-09-07T09:30:57.878Z,751
2018-09-07T09:32:05.090Z,753
2018-09-07T09:33:12.311Z,752
2018-09-07T09:34:19.533Z,752
2018-09-07T09:35:26.749Z,751
2018-09-07T09:36:33.997Z,751
2018-09-07T09:37:40.935Z,751
2018-09-07T09:38:47.877Z,751
2018-09-07T09:39:55.124Z,747
2018-09-07T09:41:02.077Z,747
2018-09-07T09:42:09.333Z,747
2018-09-07T09:43:16.537Z,746
2018-09-07T09:44:23.754Z,746
2018-09-07T09:45:30.978Z,743
2018-09-07T09:46:38.195Z,745
2018-09-07T09:47:45.412Z,744
2018-09-07T09:48:52.627Z,746
2018-09-07T09:49:59.853Z,749
2018-09-07T09:51:07.068Z,747
2018-09-07T09:52:14.288Z,746
2018-09-07T09:53:21.504Z,746
2018-09-07T09:54:28.731Z,745
2018-09-07T09:55:35.951Z,748
2018-09-07T09:56:43.172Z,746
2018-09-07T09:57:50.128Z,744
2018-09-07T09:58:57.342Z,746
2018-09-07T10:00:04.565Z,746
2018-09-07T10:01:11.788Z,747
2018-09-07T10:02:19.078Z,743
2018-09-07T10:03:26.326Z,743
2018-09-07T10:04:33.537Z,743
2018-09-07T10:05:40.886Z,742
2018-09-07T10:06:48.204Z,744
2018-09-07T10:07:55.424Z,746
2018-09-07T10:09:02.381Z,744
2018-09-07T10:10:09.591Z,742
2018-09-07T10:11:16.812Z,740
2018-09-07T10:12:24.249Z,743
2018-09-07T10:13:31.584Z,743
2018-09-07T10:14:38.800Z,745
2018-09-07T10:15:46.021Z,738
2018-09-07T10:16:53.244Z,740
2018-09-07T10:18:00.475Z,741
2018-09-07T10:19:08.056Z,745
2018-09-07T10:20:15.487Z,745
2018-09-07T10:21:22.433Z,746
2018-09-07T10:22:29.385Z,733
2018-09-07T10:23:36.331Z,731
2018-09-07T10:24:43.275Z,726
2018-09-07T10:25:50.495Z,730
2018-09-07T10:26:57.711Z,732
2018-09-07T10:28:04.932Z,738
2018-09-07T10:29:12.150Z,739
2018-09-07T10:30:19.362Z,737
2018-09-07T10:31:26.587Z,740
2018-09-07T10:32:33.794Z,738
2018-09-07T10:33:41.015Z,733
2018-09-07T10:34:48.233Z,726
2018-09-07T10:35:55.445Z,726
2018-09-07T10:37:02.662Z,733
2018-09-07T10:38:09.882Z,731
2018-09-07T10:39:17.103Z,735
2018-09-07T10:40:24.323Z,735
2018-09-07T10:41:31.540Z,737
2018-09-07T10:42:38.749Z,739
2018-09-07T10:43:45.970Z,741
2018-09-07T10:44:53.201Z,740
2018-09-07T10:46:00.422Z,739
2018-09-07T10:47:07.641Z,739
2018-09-07T10:48:14.862Z,738
2018-09-07T10:49:22.086Z,743
2018-09-07T10:50:29.309Z,744
2018-09-07T10:51:36.527Z,747
2018-09-07T10:52:43.206Z,746
2018-09-07T10:53:50.426Z,743
2018-09-07T10:54:57.641Z,744
2018-09-07T10:56:04.859Z,746
2018-09-07T10:57:12.075Z,743
2018-09-07T10:58:19.294Z,745
2018-09-07T10:59:26.903Z,742
2018-09-07T11:00:34.224Z,733
2018-09-07T11:01:41.440Z,733
2018-09-07T11:02:48.653Z,738
2018-09-07T11:03:55.872Z,738
2018-09-07T11:05:02.805Z,731
2018-09-07T11:06:09.748Z,730
2018-09-07T11:07:16.971Z,724
2018-09-07T11:08:24.189Z,729
2018-09-07T11:09:31.408Z,723
2018-09-07T11:10:38.628Z,722
2018-09-07T11:11:45.845Z,714
2018-09-07T11:12:53.064Z,708
2018-09-07T11:14:00.649Z,706
2018-09-07T11:15:08.192Z,716
2018-09-07T11:16:15.140Z,720
2018-09-07T11:17:22.360Z,726
2018-09-07T11:18:29.580Z,721
2018-09-07T11:19:36.530Z,713
2018-09-07T11:20:43.506Z,708
2018-09-07T11:21:50.499Z,704
2018-09-07T11:22:57.716Z,697
2018-09-07T11:24:04.388Z,699
2018-09-07T11:25:11.613Z,703
2018-09-07T11:26:18.833Z,705
2018-09-07T11:27:26.052Z,714
2018-09-07T11:28:33.266Z,723
2018-09-07T11:29:40.488Z,727
2018-09-07T11:30:47.707Z,720
2018-09-07T11:31:54.655Z,709
2018-09-07T11:33:01.877Z,698
2018-09-07T11:34:09.093Z,696
2018-09-07T11:35:16.314Z,701
2018-09-07T11:36:23.539Z,703
2018-09-07T11:37:30.743Z,717
2018-09-07T11:38:37.958Z,729
2018-09-07T11:39:45.171Z,737
2018-09-07T11:40:52.131Z,742
2018-09-07T11:41:59.385Z,740
2018-09-07T11:43:06.600Z,742
2018-09-07T11:44:13.542Z,741
2018-09-07T11:45:20.763Z,738
2018-09-07T11:46:28.197Z,738
2018-09-07T11:47:35.416Z,733
2018-09-07T11:48:42.644Z,732
2018-09-07T11:49:49.870Z,713
2018-09-07T11:50:57.088Z,702
2018-09-07T11:52:04.309Z,699
2018-09-07T11:53:11.534Z,702
2018-09-07T11:54:18.752Z,715
2018-09-07T11:55:25.968Z,722
2018-09-07T11:56:33.185Z,726
2018-09-07T11:57:40.131Z,719
2018-09-07T11:58:47.356Z,710
2018-09-07T11:59:54.578Z,708
2018-09-07T12:01:01.793Z,713
2018-09-07T12:02:09.318Z,706
2018-09-07T12:03:16.727Z,704
2018-09-07T12:04:24.367Z,701
2018-09-07T12:05:31.746Z,702
2018-09-07T12:06:53.617Z,698
2018-09-07T12:08:00.565Z,712
2018-09-07T12:09:07.782Z,725
2018-09-07T12:10:15.002Z,737
2018-09-07T12:11:22.218Z,742
2018-09-07T12:12:30.068Z,740
2018-09-07T12:13:37.440Z,738
2018-09-07T12:14:44.385Z,740
2018-09-07T12:15:51.604Z,739
2018-09-07T12:16:58.820Z,738
2018-09-07T12:18:06.039Z,739
2018-09-07T12:19:13.258Z,740
2018-09-07T12:20:20.208Z,741
2018-09-07T12:21:27.428Z,742
2018-09-07T12:22:34.657Z,741
2018-09-07T12:23:41.681Z,742
2018-09-07T12:24:48.925Z,742
2018-09-07T12:25:55.867Z,739
2018-09-07T12:27:03.079Z,738
2018-09-07T12:28:10.143Z,739
2018-09-07T12:29:17.376Z,740
2018-09-07T12:30:24.587Z,740
2018-09-07T12:31:31.811Z,739
2018-09-07T12:32:39.027Z,740
2018-09-07T12:33:46.255Z,740
2018-09-07T12:34:53.478Z,740
2018-09-07T12:36:00.706Z,741
2018-09-07T12:37:07.927Z,740
2018-09-07T12:38:14.871Z,741
2018-09-07T12:39:22.091Z,739
2018-09-07T12:40:29.306Z,737
2018-09-07T12:41:36.533Z,740
2018-09-07T12:42:43.769Z,739
2018-09-07T12:43:50.989Z,739
2018-09-07T12:44:58.219Z,740
2018-09-07T12:46:05.436Z,740
2018-09-07T12:47:12.663Z,740
2018-09-07T12:48:19.942Z,743
2018-09-07T12:49:26.881Z,741
2018-09-07T12:50:34.098Z,742
2018-09-07T12:51:41.344Z,740
2018-09-07T12:52:48.560Z,741
2018-09-07T12:53:55.789Z,743
2018-09-07T12:55:03.014Z,742
2018-09-07T12:56:10.524Z,742
2018-09-07T12:57:18.158Z,743
2018-09-07T12:58:25.384Z,742
2018-09-07T12:59:32.602Z,743
2018-09-07T13:00:39.553Z,742
2018-09-07T13:01:46.779Z,742
2018-09-07T13:02:53.997Z,741
2018-09-07T13:04:01.230Z,740
2018-09-07T13:05:08.452Z,740
2018-09-07T13:06:15.672Z,740
2018-09-07T13:07:22.619Z,740
2018-09-07T13:08:29.838Z,739
2018-09-07T13:09:37.065Z,739
2018-09-07T13:10:44.018Z,738
2018-09-07T13:11:51.266Z,738
2018-09-07T13:12:58.486Z,738
2018-09-07T13:14:05.706Z,739
2018-09-07T13:15:12.933Z,739
2018-09-07T13:16:20.150Z,737
2018-09-07T13:17:27.372Z,738
2018-09-07T13:18:34.589Z,738
2018-09-07T13:19:41.864Z,738
2018-09-07T13:20:49.099Z,738
2018-09-07T13:21:56.043Z,738
2018-09-07T13:23:03.263Z,739
2018-09-07T13:24:10.206Z,737
2018-09-07T13:25:17.426Z,739
2018-09-07T13:26:24.371Z,737
2018-09-07T13:27:31.590Z,736
2018-09-07T13:28:38.922Z,735
2018-09-07T13:29:46.248Z,734
2018-09-07T13:30:53.462Z,735
2018-09-07T13:32:00.679Z,734
2018-09-07T13:33:07.907Z,733
2018-09-07T13:34:14.855Z,733
2018-09-07T13:35:21.806Z,732
2018-09-07T13:36:29.032Z,732
2018-09-07T13:37:36.246Z,734
2018-09-07T13:38:43.188Z,733
2018-09-07T13:39:50.135Z,733
2018-09-07T13:40:57.352Z,734
2018-09-07T13:42:04.572Z,733
2018-09-07T13:43:11.788Z,732
2018-09-07T13:44:19.009Z,732
2018-09-07T13:45:26.233Z,730
2018-09-07T13:46:33.451Z,729
2018-09-07T13:47:40.668Z,728
2018-09-07T13:48:47.889Z,728
2018-09-07T13:49:55.108Z,729
2018-09-07T13:51:02.321Z,729
2018-09-07T13:52:09.546Z,728
2018-09-07T13:53:16.758Z,728
2018-09-07T13:54:23.978Z,730
2018-09-07T13:55:31.203Z,729
2018-09-07T13:56:38.418Z,727
2018-09-07T13:57:45.633Z,726
2018-09-07T13:58:52.854Z,729
2018-09-07T14:00:00.070Z,728
2018-09-07T14:01:07.331Z,727
2018-09-07T14:02:14.553Z,727
2018-09-07T14:03:21.775Z,728
2018-09-07T14:04:28.995Z,727
2018-09-07T14:05:36.216Z,727
2018-09-07T14:06:43.434Z,720
2018-09-07T14:07:50.650Z,714
2018-09-07T14:08:57.867Z,709
2018-09-07T14:10:05.082Z,718
2018-09-07T14:11:12.299Z,723
2018-09-07T14:12:19.239Z,726
2018-09-07T14:13:26.184Z,726
2018-09-07T14:14:33.402Z,719
2018-09-07T14:15:40.621Z,701
2018-09-07T14:16:47.844Z,700
2018-09-07T14:17:55.057Z,690
2018-09-07T14:19:01.999Z,693
2018-09-07T14:20:09.221Z,689
2018-09-07T14:21:16.438Z,695
2018-09-07T14:22:23.682Z,684
2018-09-07T14:23:30.910Z,676
2018-09-07T14:24:37.857Z,678
2018-09-07T14:25:45.074Z,685
2018-09-07T14:26:52.291Z,681
2018-09-07T14:27:59.510Z,692
2018-09-07T14:29:06.737Z,716
2018-09-07T14:30:13.951Z,728
2018-09-07T14:31:21.181Z,730
2018-09-07T14:32:28.396Z,732
2018-09-07T14:33:35.622Z,731
2018-09-07T14:34:42.842Z,731
2018-09-07T14:35:50.070Z,733
2018-09-07T14:36:57.015Z,735
2018-09-07T14:38:04.231Z,737
2018-09-07T14:39:11.450Z,737
2018-09-07T14:40:18.676Z,737
2018-09-07T14:41:25.897Z,739
2018-09-07T14:42:33.112Z,739
2018-09-07T14:43:40.338Z,740
2018-09-07T14:44:47.572Z,738
2018-09-07T14:45:54.808Z,740
2018-09-07T14:47:02.029Z,740
2018-09-07T14:48:09.243Z,739
2018-09-07T14:49:16.650Z,739
2018-09-07T14:50:24.016Z,739
2018-09-07T14:51:31.235Z,739
2018-09-07T14:52:38.449Z,740
2018-09-07T14:53:45.667Z,738
2018-09-07T14:54:53.490Z,739
2018-09-07T14:56:01.028Z,738
2018-09-07T14:57:08.261Z,738
2018-09-07T14:58:15.471Z,738
2018-09-07T14:59:22.690Z,738
2018-09-07T15:00:30.057Z,725
2018-09-07T15:01:37.368Z,735
2018-09-07T15:02:44.593Z,730
2018-09-07T15:03:51.820Z,764
2018-09-07T15:04:59.040Z,696
2018-09-07T15:06:06.419Z,742
2018-09-07T15:07:13.753Z,773
2018-09-07T15:08:20.967Z,777
2018-09-07T15:09:27.907Z,776
2018-09-07T15:10:34.846Z,779
2018-09-07T15:11:42.238Z,781
2018-09-07T15:12:49.513Z,786
2018-09-07T15:13:56.730Z,786
2018-09-07T15:15:03.685Z,784
2018-09-07T15:16:10.908Z,810
2018-09-07T15:17:17.884Z,817
2018-09-07T15:18:25.087Z,806
2018-09-07T15:19:32.304Z,791
2018-09-07T15:20:39.527Z,772
2018-09-07T15:21:46.744Z,759
2018-09-07T15:22:53.959Z,747
2018-09-07T15:24:01.172Z,749
2018-09-07T15:25:08.387Z,746
2018-09-07T15:26:15.906Z,750